AirNav   ProFlight Series 2 Aviation Headset
 
 627 users online  

00A Total RF Heliport
Bensalem, Pennsylvania, USA

GOING TO BENSALEM?


FAA INFORMATION EFFECTIVE 16 JULY 2020

Location

FAA Identifier: 00A
Lat/Long: 40-04-15.0000N 074-56-01.0000W
40-04.250000N 074-56.016667W
40.0708333,-74.9336111
(estimated)
Elevation: 11 ft. / 3 m (estimated)
Variation: 12W (1995)
From city: 1 mile E of BENSALEM, PA
Time zone: UTC -4 (UTC -5 during Standard Time)
Zip code: 08010

Heliport Operations

Heliport use: Open to the public
Activation date: 04/1999
Control tower: no
ARTCC: NEW YORK CENTER
FSS: WILLIAMSPORT FLIGHT SERVICE STATION
NOTAMs facility: IPT (NOTAM-D service available)
Attendance: UNATTENDED
AFTER HRS 215-990-5300.
Wind indicator: lighted
Segmented circle: no
Lights: SS-SR

Heliport Communications

CTAF: 122.9
WX ASOS at PNE (4 nm W): 121.15 (215-677-0146)
WX ASOS at VAY (9 nm SE): 119.325 (609-267-1176)
WX ASOS at TTN (14 nm NE): 126.775 (609-538-8690)
WX AWOS-3 at LOM (16 nm W): 118.925 (215-646-1068)
WX ASOS at DYL (18 nm NW): 118.875 (215-345-0392)
WX ASOS at PHL (18 nm SW): PHONE 215-492-9617

Nearby radio navigation aids

VOR radial/distance  VOR name  Freq  Var
ARDr196/11.0YARDLEY VOR/DME108.2010W
GXUr295/15.9MC GUIRE VORTAC110.6012W
RBVr259/21.6ROBBINSVILLE VORTAC113.8010W
CYNr313/27.7COYLE VORTAC113.4010W
PTWr117/30.1POTTSTOWN VORTAC116.5009W
OODr043/31.1WOODSTOWN VORTAC112.8010W
SBJr206/32.0SOLBERG VOR/DME112.9010W
VCNr013/32.0CEDAR LAKE VOR/DME115.2010W
MXEr084/35.1MODENA VORTAC113.2009W
COLr259/38.3COLTS NECK VOR/DME115.4011W
DQOr063/38.9DUPONT VORTAC114.0010W

 
NDB name  Hdg/Dist  Freq  Var  ID
AMBLER114/16.527512WING .. -. --.
LAKEHURST284/27.539611WNEL -. . .-..

Heliport Services

Parking: tiedowns
Airframe service: NONE
Powerplant service: NONE

Runway Information

Helipad H1

Dimensions: 80 x 80 ft. / 24 x 24 m
Surface: asphalt, in good condition
Runway edge lights: PERI
Traffic pattern: leftleft
Markings: basic, in good condition

Heliport Ownership and Management from official FAA records

Ownership: Privately-owned
Owner: TRF REAL ESTATE PARTNERSHIP
137 NORTH LINCOLN AVE.
NEWTOWN, PA 18940
Phone 215-990-5300
Manager: STEVE GANSKY
777 AMERICAN DR
BENSALEM, PA 19020
Phone 215-990-5300

Heliport Operational Statistics

Aircraft operations: 100/year *
100% transient general aviation
* for 12-month period ending 27 June 2019

Additional Remarks

INGRESS/EGRESS 290 DEG-110 DEG & 020 DEG-200 DEG.
FOR CD CTC PHILADELPHIA APCH AT 800-354-9884.

Instrument Procedures

There are no published instrument procedures at 00A.

Some nearby airports with instrument procedures:

KPNE - Northeast Philadelphia Airport (4 nm W)
KVAY - South Jersey Regional Airport (9 nm SE)
N14 - Flying W Airport (10 nm SE)
KTTN - Trenton Mercer Airport (14 nm NE)
KLOM - Wings Field Airport (16 nm W)
KWRI - McGuire Field (Joint Base Mc Guire Dix Lakehurst) Airport (16 nm E)
N87 - Trenton-Robbinsville Airport (17 nm NE)
19N - Camden County Airport (18 nm S)
KDYL - Doylestown Airport (18 nm NW)
KPHL - Philadelphia International Airport (18 nm SW)
 
Loc | Ops | Rwys | IFR | FBO | Links
Com | Nav | Svcs | Stats | Notes
Area around 00A (Total RF Heliport)
 
Road maps at: MapQuest Bing Google
 
Aerial photo
No photo
 
Sectional chart

 
Airport distance calculator
Flying to Total RF Heliport? Find the distance to fly.

From to 00A

Sunrise and sunset
Times for 05-Aug-2020
 Local
(UTC-4)
 Zulu
(UTC)
Morning civil twilight05:3409:34
Sunrise06:0410:04
Sunset20:0800:08
Evening civil twilight20:3700:37

Current date and time
Zulu (UTC)  05-Aug-2020 11:23:31
Local (UTC-4)  05-Aug-2020 07:23:31
 
METAR
KPNE 
4nm W 
051054Z AUTO 29005KT 10SM CLR 22/19 A3001 RMK AO2 SLP159 T02170194
KVAY 
9nm SE 
ASOS 119.325 609-267-1176
051054Z AUTO A2999 RMK AO2 SLPNO PWINO $
KTTN 
14nm NE 
ASOS 133.70 609-538-8690
051053Z 00000KT 10SM CLR 22/20 A2998 RMK AO2 SLP145 T02170200
KLOM 
16nm W 
051055Z AUTO 29004KT 10SM CLR 21/19 A3001 RMK AO2 P0002 T02070188
KWRI 
16nm E 
051056Z AUTO 27004KT 10SM CLR 22/20 A2999 RMK AO2 SLP154 T02180201 $
KDYL 
18nm NW 
051054Z AUTO VRB03KT 10SM CLR 22/18 A2999 RMK AO2 SLP151 T02170178
KPHL 
18nm SW 
051054Z 27004KT 10SM FEW190 FEW260 23/19 A3000 RMK AO2 SLP157 T02280189
TAF
KPNE 
4nm W 
050520Z 0506/0606 23007KT P6SM SCT100 FM051400 30007KT P6SM FEW040 FM051800 27007KT P6SM SCT040 FM060000 28005KT P6SM SKC
KTTN 
14nm NE 
050520Z 0506/0606 20005KT P6SM SCT100 FM051400 31006KT P6SM FEW040 FM051800 27007KT P6SM SCT040 FM060000 VRB02KT P6SM SKC
KWRI 
16nm E 
051000Z 0510/0616 27006KT 9999 FEW090 SCT250 QNH2996INS BECMG 0517/0518 25010KT 9999 SCT050 SCT250 QNH3001INS BECMG 0600/0601 VRB05KT 9999 SCT035 BKN250 QNH3005INS BECMG 0611/0612 02009KT 9000 -SHRA BKN035 OVC250 QNH3012INS TX31/0520Z TN19/0610Z
KPHL 
18nm SW 
050834Z 0509/0612 25006KT P6SM FEW100 FM051400 28007KT P6SM FEW040 FM051800 26011KT P6SM SCT040 FM060000 25007KT P6SM SCT040
NOTAMs
Click for the latest NOTAMs
NOTAMs are issued by the DoD/FAA and will open in a separate window not controlled by AirNav.

 

 
 

Would you like to see your business listed on this page?

 If your business provides an interesting product or service to pilots, flight crews, aircraft, or users of the Total RF Heliport, you should consider listing it here.  To start the listing process, click on the button below
 
Add a business
 

Other Pages about Total RF Heliport

Update a link
 
Copyright © AirNav, LLC. All rights reserved. Privacy Policy  Contact